Time;durP1;ratioP1;P1;durP2;ratioP2;P2;SDS_P1;SDS_P2;PMS_P1;PMS_P2;Temp;Humidity;BMP_temperature;BMP_pressure;BME280_temperature;BME280_humidity;BME280_pressure;Samples;Min_cycle;Max_cycle;Signal;HPM_P1;HPM_P2
2022/07/13 00:02:13;;;;;;;1.92;0.75;;;;;;;22.45;81.26;101390.53;5052908;28;20043;-66
2022/07/13 00:04:38;;;;;;;0.70;0.60;;;;;;;22.58;81.82;101388.00;5051630;28;20522;-66
2022/07/13 00:07:04;;;;;;;1.73;0.63;;;;;;;22.58;81.02;101382.50;5047264;28;20059;-66
2022/07/13 00:09:29;;;;;;;0.70;0.45;;;;;;;22.59;80.90;101378.56;5027917;28;20082;-64
2022/07/13 00:11:55;;;;;;;2.15;0.90;;;;;;;22.58;81.22;101368.00;5045480;28;20043;-65
2022/07/13 00:17:42;;;;;;;1.45;0.82;;;;;;;22.37;81.58;101347.16;5032524;28;20049;-66
2022/07/13 00:20:08;;;;;;;0.93;0.80;;;;;;;22.41;80.79;101354.13;5026909;28;20037;-66
2022/07/13 00:22:33;;;;;;;0.98;0.77;;;;;;;22.59;80.17;101350.34;5050574;22;20028;-67
2022/07/13 00:24:59;;;;;;;0.85;0.63;;;;;;;22.62;80.40;101360.47;5054027;28;20048;-65
2022/07/13 00:27:24;;;;;;;0.88;0.68;;;;;;;22.62;81.45;101354.97;5064979;28;20024;-66
2022/07/13 00:29:50;;;;;;;1.13;0.75;;;;;;;22.70;78.90;101357.19;5053861;28;20028;-65
2022/07/13 00:32:15;;;;;;;1.02;0.80;;;;;;;22.55;80.53;101349.59;5045384;28;20024;-65
2022/07/13 00:34:41;;;;;;;0.80;0.68;;;;;;;22.47;81.38;101348.16;5029514;28;20483;-65
2022/07/13 00:37:07;;;;;;;0.82;0.63;;;;;;;22.53;81.11;101347.25;5057129;28;20037;-65
2022/07/13 00:39:33;;;;;;;4.13;0.82;;;;;;;22.57;80.87;101349.97;5061802;28;20490;-66
2022/07/13 00:41:58;;;;;;;0.93;0.60;;;;;;;22.62;81.19;101341.25;5059639;28;20059;-65
2022/07/13 00:44:24;;;;;;;1.42;0.90;;;;;;;22.58;81.32;101351.53;5058552;28;20024;-66
2022/07/13 00:50:06;;;;;;;0.80;0.73;;;;;;;22.68;79.97;101340.34;5047272;28;20475;-65
2022/07/13 00:52:36;;;;;;;;;;;;;;;22.59;79.95;101345.59;5065799;28;20020;-66
2022/07/13 00:55:02;;;;;;;0.73;0.70;;;;;;;22.62;80.64;101333.78;5046424;28;19939;-65
2022/07/13 00:57:28;;;;;;;1.13;0.80;;;;;;;22.68;80.17;101325.84;5051414;28;20036;-65
2022/07/13 00:59:55;;;;;;;2.10;0.70;;;;;;;22.71;80.50;101330.47;5062217;28;20039;-63
2022/07/13 01:02:21;;;;;;;1.63;1.10;;;;;;;22.53;79.56;101330.78;5050252;28;20531;-63
2022/07/13 01:04:46;;;;;;;0.98;0.70;;;;;;;22.69;79.18;101321.88;5049252;28;20119;-63
2022/07/13 01:07:12;;;;;;;1.13;0.90;;;;;;;22.69;79.34;101321.88;5052970;28;20116;-63
2022/07/13 01:09:38;;;;;;;0.50;0.50;;;;;;;22.59;80.22;101317.38;5065735;28;20471;-63
2022/07/13 01:12:05;;;;;;;1.00;0.80;;;;;;;22.58;79.88;101305.63;5067849;28;20081;-63
2022/07/13 01:14:31;;;;;;;1.20;0.60;;;;;;;22.65;79.02;101305.47;5043252;28;20032;-63
2022/07/13 01:16:58;;;;;;;2.85;0.98;;;;;;;22.66;79.84;101306.25;5048437;28;20044;-63
2022/07/13 01:19:25;;;;;;;1.00;0.85;;;;;;;22.62;80.63;101303.59;5063256;28;20402;-63
2022/07/13 01:21:56;;;;;;;0.75;0.57;;;;;;;22.64;80.16;101303.16;5061200;28;20035;-63
2022/07/13 01:24:22;;;;;;;1.38;0.80;;;;;;;22.66;78.88;101303.50;5063470;28;20036;-63
2022/07/13 01:26:48;;;;;;;0.65;0.60;;;;;;;22.64;79.38;101311.41;5060376;28;20142;-63
2022/07/13 01:29:14;;;;;;;0.73;0.70;;;;;;;22.81;77.49;101316.56;5058558;28;22273;-63
2022/07/13 01:31:41;;;;;;;0.80;0.80;;;;;;;22.68;78.62;101304.66;5029358;28;20101;-63
2022/07/13 01:34:08;;;;;;;1.45;0.75;;;;;;;22.76;77.53;101303.31;5043988;28;20032;-63
2022/07/13 01:36:35;;;;;;;1.70;0.68;;;;;;;22.71;77.73;101303.78;5050602;28;20395;-63
2022/07/13 01:39:01;;;;;;;0.95;0.65;;;;;;;22.70;77.61;101296.75;5048464;28;20051;-63
2022/07/13 01:41:30;;;;;;;0.82;0.70;;;;;;;22.63;78.85;101291.38;5063168;28;20074;-63
2022/07/13 01:43:57;;;;;;;1.20;0.82;;;;;;;22.68;77.95;101281.91;5044957;28;20036;-63
2022/07/13 01:46:26;;;;;;;1.48;0.88;;;;;;;22.68;78.29;101282.69;5039741;28;20056;-63
2022/07/13 01:48:54;;;;;;;1.20;0.70;;;;;;;22.59;78.71;101287.94;5066906;28;20069;-63
2022/07/13 01:51:19;;;;;;;1.58;0.70;;;;;;;22.57;79.66;101276.59;5070612;28;20028;-63
2022/07/13 01:53:45;;;;;;;1.17;0.70;;;;;;;22.53;80.13;101280.59;5080370;28;20032;-63
2022/07/13 01:56:11;;;;;;;1.25;0.70;;;;;;;22.52;79.92;101270.78;5039332;28;20028;-63
2022/07/13 01:58:55;;;;;;;0.98;0.63;;;;;;;22.53;80.20;101264.09;5034803;28;20044;-63
2022/07/13 02:01:21;;;;;;;3.00;0.90;;;;;;;22.43;80.40;101263.13;5043904;28;20060;-63
2022/07/13 02:03:48;;;;;;;1.00;0.90;;;;;;;22.58;78.81;101269.13;5044590;28;20021;-63
2022/07/13 02:06:14;;;;;;;0.98;0.65;;;;;;;22.54;78.93;101271.91;5050656;28;20395;-63
2022/07/13 02:08:40;;;;;;;0.93;0.77;;;;;;;22.50;78.48;101267.69;5060347;28;20401;-63
2022/07/13 02:11:13;;;;;;;0.80;0.73;;;;;;;22.46;78.90;101265.00;5050490;28;20095;-63
2022/07/13 02:13:39;;;;;;;2.38;0.70;;;;;;;22.43;79.66;101258.38;5032357;28;20089;-63
2022/07/13 02:16:04;;;;;;;1.25;0.73;;;;;;;22.48;80.38;101262.63;5061788;28;20432;-63
2022/07/13 02:18:30;;;;;;;0.95;0.80;;;;;;;22.48;79.88;101262.63;5049139;28;20065;-63
2022/07/13 02:20:56;;;;;;;0.70;0.60;;;;;;;22.45;80.64;101258.72;5051600;28;20066;-63
2022/07/13 02:23:21;;;;;;;0.82;0.70;;;;;;;22.40;79.40;101241.97;5063707;28;20473;-63
2022/07/13 02:25:48;;;;;;;0.95;0.70;;;;;;;22.43;78.91;101244.66;5060981;28;20035;-63
2022/07/13 02:28:14;;;;;;;0.80;0.73;;;;;;;22.51;77.62;101242.56;5072714;28;20032;-62
2022/07/13 02:30:39;;;;;;;0.98;0.73;;;;;;;22.40;79.42;101237.25;5049643;28;20537;-63
2022/07/13 02:33:06;;;;;;;1.05;0.88;;;;;;;22.46;79.90;101237.53;5067304;28;20125;-63
2022/07/13 02:35:32;;;;;;;1.38;0.90;;;;;;;22.48;80.10;101246.13;5063886;28;20025;-63
2022/07/13 02:37:58;;;;;;;1.20;0.93;;;;;;;22.41;80.78;101235.31;5072410;28;20040;-63
2022/07/13 02:40:25;;;;;;;0.73;0.68;;;;;;;22.40;81.08;101239.22;5060744;28;20510;-63
2022/07/13 02:42:54;;;;;;;1.00;0.80;;;;;;;22.41;80.87;101225.06;5044934;28;20031;-63
2022/07/13 02:45:20;;;;;;;2.65;0.90;;;;;;;22.36;80.99;101233.81;5049899;28;20020;-63
2022/07/13 02:47:47;;;;;;;1.40;1.08;;;;;;;22.43;80.29;101228.19;5049473;28;20033;-63
2022/07/13 02:50:13;;;;;;;1.00;0.70;;;;;;;22.48;79.91;101232.41;5067813;28;20082;-63
2022/07/13 02:52:38;;;;;;;1.00;0.70;;;;;;;22.41;79.79;101227.06;5048656;28;20032;-63
2022/07/13 02:55:04;;;;;;;1.45;1.00;;;;;;;22.45;79.67;101227.78;5049905;28;20024;-63
2022/07/13 02:57:30;;;;;;;1.35;0.90;;;;;;;22.47;79.26;101222.63;5048315;28;20044;-63
2022/07/13 03:00:17;;;;;;;1.05;0.95;;;;;;;22.50;78.73;101221.00;5049509;28;20035;-63
2022/07/13 03:02:43;;;;;;;0.90;0.80;;;;;;;22.48;79.24;101224.19;5056930;28;20033;-62
2022/07/13 03:05:12;;;;;;;1.10;0.90;;;;;;;22.43;78.66;101214.44;5058141;28;20048;-63
2022/07/13 03:07:56;;;;;;;0.98;0.70;;;;;;;22.29;78.91;101219.44;5066898;28;20056;-63
2022/07/13 03:10:22;;;;;;;2.22;0.90;;;;;;;22.41;78.74;101214.09;5049167;28;20074;-63
2022/07/13 03:12:51;;;;;;;1.13;0.90;;;;;;;22.37;79.87;101209.88;5050698;28;20048;-63
2022/07/13 03:15:17;;;;;;;1.50;1.10;;;;;;;22.47;78.80;101217.16;5052479;28;20027;-63
2022/07/13 03:17:43;;;;;;;1.45;0.95;;;;;;;22.49;78.05;101216.72;5053078;28;20121;-62
2022/07/13 03:20:12;;;;;;;1.73;1.13;;;;;;;22.39;79.25;101222.00;5052130;28;20028;-63
2022/07/13 03:22:38;;;;;;;1.77;1.05;;;;;;;22.35;80.48;101210.31;5050668;28;20052;-64
2022/07/13 03:27:54;;;;;;;1.47;0.97;;;;;;;22.16;81.59;101213.03;5061743;28;20032;-64
2022/07/13 03:30:20;;;;;;;1.10;0.82;;;;;;;22.28;80.57;101224.16;5053632;28;20029;-64
2022/07/13 03:32:46;;;;;;;1.63;1.00;;;;;;;22.31;79.45;101217.84;5045853;28;20037;-64
2022/07/13 03:35:12;;;;;;;1.42;1.10;;;;;;;22.25;80.71;101219.50;5052967;28;20066;-63
2022/07/13 03:37:38;;;;;;;1.45;1.20;;;;;;;22.28;80.14;101215.91;5043955;28;20446;-64
2022/07/13 03:40:04;;;;;;;1.33;1.00;;;;;;;22.32;80.94;101215.84;5055359;28;20115;-63
2022/07/13 03:42:50;;;;;;;1.30;0.82;;;;;;;22.31;80.79;101217.06;5052034;28;20036;-63
2022/07/13 03:45:16;;;;;;;1.70;1.23;;;;;;;22.17;81.58;101209.06;4990658;28;20117;-63
2022/07/13 03:47:42;;;;;;;0.98;0.90;;;;;;;22.24;80.27;101201.47;4996887;28;20512;-63
2022/07/13 03:50:27;;;;;;;1.08;0.90;;;;;;;22.21;81.28;101205.09;4998562;28;20131;-63
2022/07/13 03:52:52;;;;;;;1.83;1.02;;;;;;;22.16;80.87;101202.06;4990017;28;20041;-63
2022/07/13 03:55:18;;;;;;;1.10;0.90;;;;;;;22.17;81.32;101198.88;4979005;28;20034;-63
2022/07/13 03:57:44;;;;;;;1.10;1.00;;;;;;;22.17;81.60;101196.13;4995632;28;20042;-63
2022/07/13 04:00:11;;;;;;;1.08;0.90;;;;;;;22.05;80.51;101177.53;4991133;28;20026;-63
2022/07/13 04:02:48;;;;;;;1.00;0.90;;;;;;;22.10;80.09;101181.78;4983214;28;20069;-63
2022/07/13 04:05:14;;;;;;;1.30;0.90;;;;;;;22.21;80.42;101185.09;4974559;28;20034;-63
2022/07/13 04:08:00;;;;;;;1.60;1.05;;;;;;;22.29;80.64;101192.78;4970493;28;20034;-64
2022/07/13 04:10:25;;;;;;;1.35;1.10;;;;;;;22.13;81.31;101178.97;4991006;28;20039;-63
2022/07/13 04:13:10;;;;;;;1.10;0.85;;;;;;;22.13;80.20;101165.22;4981766;28;20121;-63
2022/07/13 04:15:54;;;;;;;1.40;0.90;;;;;;;22.19;80.15;101171.00;4986450;28;20066;-63
2022/07/13 04:18:20;;;;;;;1.13;0.80;;;;;;;22.22;80.69;101167.44;4961749;28;20035;-63
2022/07/13 04:20:46;;;;;;;1.05;0.95;;;;;;;22.07;79.71;101172.41;4994395;28;20049;-63
2022/07/13 04:23:12;;;;;;;2.80;0.80;;;;;;;22.10;80.38;101165.31;5037257;28;20037;-63
2022/07/13 04:25:37;;;;;;;1.60;1.17;;;;;;;22.19;79.61;101157.28;5045109;28;20035;-63
2022/07/13 04:28:04;;;;;;;1.63;1.02;;;;;;;22.26;79.34;101159.91;5048150;28;20486;-64
2022/07/13 04:30:31;;;;;;;1.40;0.90;;;;;;;22.30;79.70;101158.63;5053427;28;20024;-64
2022/07/13 04:32:58;;;;;;;2.10;0.88;;;;;;;22.38;78.87;101156.50;5060652;28;20064;-63
2022/07/13 04:35:25;;;;;;;1.40;0.80;;;;;;;22.46;78.71;101149.69;5050746;28;20035;-63
2022/07/13 04:37:52;;;;;;;1.00;0.90;;;;;;;22.47;79.18;101164.97;5030994;28;20159;-63
2022/07/13 04:40:18;;;;;;;1.13;0.90;;;;;;;22.50;79.52;101163.34;5044574;28;20058;-64
2022/07/13 04:42:44;;;;;;;1.00;0.90;;;;;;;22.47;80.22;101153.22;5046796;28;20505;-64
2022/07/13 04:45:10;;;;;;;1.63;1.00;;;;;;;22.51;79.47;101156.66;5032739;28;20029;-64
2022/07/13 04:47:38;;;;;;;1.20;0.90;;;;;;;22.52;80.15;101156.22;5047736;28;20028;-64
2022/07/13 04:50:05;;;;;;;1.20;0.90;;;;;;;22.57;80.88;101152.25;5058109;28;20025;-64
2022/07/13 04:52:31;;;;;;;1.67;1.13;;;;;;;22.66;79.75;101153.22;5041822;28;20036;-63
2022/07/13 04:54:59;;;;;;;3.75;1.00;;;;;;;22.64;78.40;101152.88;5053945;28;20029;-64
2022/07/13 04:57:25;;;;;;;1.00;0.90;;;;;;;22.65;77.81;101151.66;5045127;28;20033;-64
2022/07/13 04:59:50;;;;;;;1.73;1.02;;;;;;;22.68;78.35;101156.31;5045035;28;20085;-64
2022/07/13 05:02:16;;;;;;;1.63;1.10;;;;;;;22.69;78.59;101144.13;5042458;28;20395;-64
2022/07/13 05:04:42;;;;;;;5.15;0.90;;;;;;;22.73;78.17;101144.81;5040300;28;20027;-63
2022/07/13 05:07:07;;;;;;;1.05;0.90;;;;;;;22.77;77.42;101142.78;5042588;28;20025;-64
2022/07/13 05:09:34;;;;;;;1.15;0.88;;;;;;;22.75;76.37;101136.94;5046671;28;20033;-64
2022/07/13 05:12:00;;;;;;;3.28;1.05;;;;;;;22.76;76.87;101138.50;5040074;28;20379;-64
2022/07/13 05:14:26;;;;;;;1.48;1.00;;;;;;;22.80;76.64;101133.66;5041319;28;20033;-64
2022/07/13 05:16:53;;;;;;;1.50;1.00;;;;;;;22.81;76.95;101135.22;5047959;28;20256;-64
2022/07/13 05:19:18;;;;;;;1.00;0.90;;;;;;;22.88;77.49;101126.06;5045015;28;20036;-64
2022/07/13 05:21:46;;;;;;;1.55;0.95;;;;;;;22.83;77.08;101124.59;5055312;28;20033;-64
2022/07/13 05:24:14;;;;;;;1.38;1.10;;;;;;;22.89;77.17;101127.59;5039883;28;20580;-65
2022/07/13 05:26:40;;;;;;;1.00;0.90;;;;;;;22.93;77.01;101118.09;5054750;28;20024;-64
2022/07/13 05:29:06;;;;;;;2.08;1.10;;;;;;;23.01;75.79;101113.97;5043600;28;20052;-64
2022/07/13 05:31:33;;;;;;;1.27;1.00;;;;;;;23.06;75.15;101124.44;5034393;28;20115;-65
2022/07/13 05:34:00;;;;;;;1.15;0.90;;;;;;;23.02;74.64;101110.03;5050131;28;20071;-64
2022/07/13 05:36:30;;;;;;;1.02;0.90;;;;;;;23.14;75.01;101116.81;5051632;28;20024;-64
2022/07/13 05:38:55;;;;;;;1.20;1.00;;;;;;;23.04;75.46;101123.31;5052311;28;20487;-65
2022/07/13 05:41:21;;;;;;;1.17;0.90;;;;;;;23.14;75.48;101112.09;5050990;28;20020;-66
2022/07/13 05:43:47;;;;;;;0.90;0.80;;;;;;;23.08;74.94;101118.53;5037970;28;20040;-66
2022/07/13 05:46:13;;;;;;;1.88;1.00;;;;;;;23.09;75.29;101115.34;5059109;28;20024;-65
2022/07/13 05:48:39;;;;;;;1.42;1.02;;;;;;;23.19;75.69;101117.06;5051254;28;20033;-66
2022/07/13 05:51:05;;;;;;;2.20;1.00;;;;;;;23.14;76.75;101111.31;5050719;28;20024;-66
2022/07/13 05:53:32;;;;;;;1.05;0.80;;;;;;;23.02;76.85;101126.50;5037204;28;20036;-66
2022/07/13 05:55:58;;;;;;;1.05;0.88;;;;;;;23.03;77.63;101117.06;5035029;28;20441;-66
2022/07/13 05:58:23;;;;;;;1.88;1.00;;;;;;;23.00;76.11;101117.91;5051907;28;20052;-65
2022/07/13 06:00:49;;;;;;;2.65;1.10;;;;;;;22.93;77.24;101120.84;5055222;28;20087;-65
2022/07/13 06:03:14;;;;;;;1.13;1.00;;;;;;;22.94;78.01;101119.63;5068231;28;20067;-65
2022/07/13 06:05:40;;;;;;;1.38;1.02;;;;;;;22.96;79.30;101117.22;5076191;28;20054;-66
2022/07/13 06:08:05;;;;;;;3.25;0.93;;;;;;;22.90;76.82;101123.66;5069941;28;20376;-65
2022/07/13 06:10:31;;;;;;;1.15;0.98;;;;;;;22.94;77.15;101125.13;5067374;28;20031;-65
2022/07/13 06:12:57;;;;;;;1.40;1.20;;;;;;;23.05;76.78;101113.88;5073077;28;20550;-66
2022/07/13 06:15:22;;;;;;;1.65;0.98;;;;;;;23.11;77.64;101123.94;5070213;28;20120;-65
2022/07/13 06:17:48;;;;;;;1.33;0.85;;;;;;;23.17;78.02;101113.97;5066866;28;20036;-66
2022/07/13 06:20:13;;;;;;;1.13;0.77;;;;;;;23.29;78.33;101118.00;5053578;28;20505;-65
2022/07/13 06:22:39;;;;;;;1.33;1.10;;;;;;;23.30;76.95;101109.34;5071677;28;20062;-65
2022/07/13 06:25:06;;;;;;;1.55;1.13;;;;;;;23.43;76.24;101105.91;5069652;28;20559;-65
2022/07/13 06:27:31;;;;;;;1.35;0.98;;;;;;;23.53;75.51;101096.63;5060775;28;20032;-65
2022/07/13 06:29:57;;;;;;;1.17;1.00;;;;;;;23.60;75.83;101093.69;5052574;28;20637;-65
2022/07/13 06:32:22;;;;;;;1.95;1.13;;;;;;;23.66;75.55;101089.19;5065846;28;20102;-65
2022/07/13 06:34:48;;;;;;;1.88;0.93;;;;;;;23.72;74.89;101095.72;5051213;28;20549;-64
2022/07/13 06:37:13;;;;;;;1.83;1.30;;;;;;;23.82;73.52;101092.69;5050968;28;20037;-65
2022/07/13 06:39:39;;;;;;;2.80;1.15;;;;;;;23.67;74.42;101082.50;5072212;28;20029;-64
2022/07/13 06:42:05;;;;;;;1.95;1.17;;;;;;;23.89;73.81;101091.72;5062867;28;20120;-64
2022/07/13 06:44:30;;;;;;;1.45;0.85;;;;;;;24.03;73.97;101086.63;5066028;28;20035;-64
2022/07/13 06:46:59;;;;;;;1.15;0.90;;;;;;;24.05;74.78;101086.19;5063261;28;20032;-64
2022/07/13 06:49:26;;;;;;;1.70;1.20;;;;;;;24.45;74.00;101084.63;5070322;28;20398;-64
2022/07/13 06:51:52;;;;;;;1.48;1.10;;;;;;;24.76;71.92;101091.19;5060868;28;20028;-65
2022/07/13 06:57:01;;;;;;;3.05;0.90;;;;;;;24.85;70.77;101091.28;5067565;28;20032;-64
2022/07/13 06:59:27;;;;;;;1.40;0.90;;;;;;;24.76;71.82;101088.44;5067218;28;20035;-64
2022/07/13 07:02:13;;;;;;;1.67;1.30;;;;;;;24.97;70.46;101085.00;5070298;28;20028;-64
2022/07/13 07:04:39;;;;;;;2.83;0.88;;;;;;;24.91;71.43;101084.00;4974073;28;20137;-64
2022/07/13 07:07:04;;;;;;;1.35;0.93;;;;;;;24.94;71.20;101087.88;4971828;28;20077;-64
2022/07/13 07:09:30;;;;;;;1.58;0.93;;;;;;;24.84;71.69;101075.19;4968136;28;20050;-64
2022/07/13 07:11:55;;;;;;;1.73;1.08;;;;;;;24.63;71.87;101075.81;4975516;28;20544;-64
2022/07/13 07:14:21;;;;;;;1.02;0.90;;;;;;;24.50;74.35;101073.06;4974923;28;20038;-64
2022/07/13 07:16:47;;;;;;;1.63;1.00;;;;;;;24.52;74.80;101078.91;4958542;28;20041;-64
2022/07/13 07:19:13;;;;;;;1.65;1.20;;;;;;;24.41;74.41;101086.72;4966362;28;20199;-64
2022/07/13 07:21:40;;;;;;;1.20;0.90;;;;;;;24.46;74.05;101083.44;4969942;28;20121;-64
2022/07/13 07:24:05;;;;;;;1.33;1.00;;;;;;;24.48;73.82;101086.53;4968974;28;20057;-64
2022/07/13 07:26:31;;;;;;;1.15;0.98;;;;;;;24.41;74.84;101070.19;4968504;28;20474;-64
2022/07/13 07:28:57;;;;;;;1.00;0.90;;;;;;;24.47;74.20;101084.19;4963040;28;20726;-64
2022/07/13 07:31:24;;;;;;;1.80;1.15;;;;;;;24.36;74.95;101080.97;4966215;28;20041;-64
2022/07/13 07:33:51;;;;;;;1.52;1.13;;;;;;;24.31;75.00;101079.56;4962599;28;20038;-64
2022/07/13 07:36:16;;;;;;;1.13;1.00;;;;;;;24.34;74.68;101080.63;4965005;28;20038;-64
2022/07/13 07:38:45;;;;;;;1.42;0.98;;;;;;;24.30;74.90;101069.72;4966314;28;20046;-64
2022/07/13 07:41:11;;;;;;;2.95;1.10;;;;;;;24.25;75.36;101084.06;4985570;28;20094;-64
2022/07/13 07:43:37;;;;;;;1.77;1.08;;;;;;;24.23;76.97;101074.69;5067564;28;20431;-64
2022/07/13 07:46:03;;;;;;;1.58;1.00;;;;;;;24.24;76.14;101059.69;5066989;28;20058;-64
2022/07/13 07:51:12;;;;;;;1.50;1.23;;;;;;;23.99;75.84;101036.38;5067111;28;20032;-64
2022/07/13 07:53:57;;;;;;;2.83;1.10;;;;;;;24.11;74.94;101024.66;5067173;28;20094;-64
2022/07/13 07:56:24;;;;;;;1.70;1.20;;;;;;;24.27;74.39;101025.78;5067335;28;20073;-64
2022/07/13 07:58:49;;;;;;;1.83;1.10;;;;;;;24.28;75.08;101028.09;5054980;28;20348;-64
2022/07/13 08:01:15;;;;;;;1.50;1.00;;;;;;;24.32;75.28;101033.50;5052181;28;20088;-64
2022/07/13 08:03:40;;;;;;;1.42;1.17;;;;;;;24.47;75.46;101046.41;5063688;28;20336;-64
2022/07/13 08:06:25;;;;;;;1.88;1.23;;;;;;;24.50;74.26;101056.56;5064217;28;20027;-64
2022/07/13 08:08:51;;;;;;;3.00;1.10;;;;;;;24.58;73.53;101054.34;5063975;28;20028;-64
2022/07/13 08:11:17;;;;;;;2.22;0.98;;;;;;;24.69;72.60;101036.28;5065005;28;20514;-64
2022/07/13 08:16:30;;;;;;;1.83;1.00;;;;;;;24.89;71.53;101050.59;5073667;28;20066;-64
2022/07/13 08:18:56;;;;;;;1.23;1.10;;;;;;;24.96;71.32;101052.38;5069705;28;20032;-64
2022/07/13 08:21:40;;;;;;;2.17;1.15;;;;;;;25.00;71.20;101058.53;5060486;28;20039;-64
2022/07/13 08:26:52;;;;;;;2.95;1.17;;;;;;;25.19;69.60;101051.22;5064982;28;20029;-64
2022/07/13 08:29:18;;;;;;;1.30;1.00;;;;;;;25.30;67.84;101052.38;5065766;28;20052;-64
2022/07/13 08:31:43;;;;;;;1.60;1.40;;;;;;;25.31;67.77;101053.16;5065216;28;20503;-64
2022/07/13 08:40:18;;;;;;;1.20;1.00;;;;;;;25.52;68.00;101049.72;5061036;28;20044;-63
2022/07/13 08:42:44;;;;;;;1.58;1.00;;;;;;;25.58;68.43;101045.94;5042772;28;20479;-64
2022/07/13 08:45:10;;;;;;;1.40;1.20;;;;;;;25.67;68.78;101043.25;5061735;28;20028;-64
2022/07/13 08:47:37;;;;;;;1.58;1.13;;;;;;;25.77;67.36;101052.38;5066735;28;20471;-64
2022/07/13 08:50:21;;;;;;;2.53;1.20;;;;;;;25.77;66.48;101049.59;5061099;28;20071;-64
2022/07/13 08:52:47;;;;;;;2.03;1.25;;;;;;;25.80;67.87;101052.22;5060384;28;20029;-64
2022/07/13 08:55:12;;;;;;;3.90;1.30;;;;;;;25.82;67.24;101049.78;5061444;28;20451;-64
2022/07/13 08:57:39;;;;;;;1.17;1.02;;;;;;;25.83;68.10;101050.56;5066624;28;20123;-63
2022/07/13 09:00:11;;;;;;;3.72;1.30;;;;;;;25.81;66.44;101048.25;5058405;28;20032;-64
2022/07/13 09:02:38;;;;;;;4.57;1.88;;;;;;;25.84;65.99;101052.88;5073398;28;20029;-64
2022/07/13 09:05:05;;;;;;;4.13;1.33;;;;;;;25.81;66.11;101050.25;5042160;28;20028;-64
2022/07/13 09:07:35;;;;;;;2.35;1.23;;;;;;;25.76;66.25;101045.31;5066408;28;20067;-64
2022/07/13 09:10:03;;;;;;;1.27;1.10;;;;;;;25.81;65.36;101041.97;5067441;28;20107;-64
2022/07/13 09:12:29;;;;;;;1.98;1.30;;;;;;;25.83;66.43;101042.28;5057305;28;20036;-64
2022/07/13 09:14:57;;;;;;;2.90;1.23;;;;;;;25.86;66.58;101044.16;5068559;28;20040;-64
2022/07/13 09:17:49;;;;;;;4.07;1.23;;;;;;;25.88;65.37;101036.16;5065058;28;20131;-64
2022/07/13 09:20:15;;;;;;;1.40;1.00;;;;;;;25.93;65.21;101044.66;5061679;28;20036;-64
2022/07/13 09:22:57;;;;;;;1.80;1.20;;;;;;;26.03;64.43;101028.94;5071893;28;20390;-64
2022/07/13 09:25:37;;;;;;;2.42;1.40;;;;;;;26.22;62.84;101033.34;5062168;28;20497;-64
2022/07/13 09:28:07;;;;;;;1.58;1.10;;;;;;;26.38;63.99;101033.13;5064139;28;20396;-64
2022/07/13 09:30:34;;;;;;;2.30;1.17;;;;;;;26.46;63.23;101034.38;5071379;28;20425;-64
2022/07/13 09:33:01;;;;;;;3.80;2.10;;;;;;;26.61;63.56;101035.38;5051989;28;20455;-64
2022/07/13 09:37:58;;;;;;;2.05;1.25;;;;;;;26.86;61.62;101025.34;5023920;28;20103;-65
2022/07/13 09:40:24;;;;;;;5.38;1.50;;;;;;;27.09;59.39;101022.00;5013051;28;20037;-65
2022/07/13 09:46:08;;;;;;;1.25;1.13;;;;;;;27.12;61.28;101021.09;5029250;28;20087;-66
2022/07/13 09:48:20;;;;;;;4.28;1.30;;;;;;;27.23;60.96;101024.19;5016989;28;20462;-63
2022/07/13 09:50:52;;;;;;;1.75;1.33;;;;;;;27.22;57.78;101025.38;5026731;28;20496;-63
2022/07/13 09:53:50;;;;;;;3.95;1.30;;;;;;;27.27;59.61;101017.28;5027145;28;20040;-63
2022/07/13 09:56:17;;;;;;;3.05;1.30;;;;;;;27.36;59.06;101020.06;5023566;28;20136;-64
2022/07/13 09:58:43;;;;;;;1.58;1.10;;;;;;;27.43;59.45;101016.97;5029286;28;20041;-62
2022/07/13 10:01:09;;;;;;;2.58;1.50;;;;;;;27.56;58.38;101016.84;5030514;28;20411;-63
2022/07/13 10:03:45;;;;;;;5.93;1.70;;;;;;;27.88;57.09;101009.84;5029993;28;20033;-62
2022/07/13 10:06:12;;;;;;;2.22;1.83;;;;;;;28.03;56.52;101014.31;5028915;28;20063;-63
2022/07/13 10:08:39;;;;;;;1.95;1.40;;;;;;;28.11;55.55;101007.22;5029417;28;20676;-63
2022/07/13 10:11:05;;;;;;;2.38;1.60;;;;;;;28.16;55.78;101012.13;5023909;28;20030;-63
2022/07/13 10:14:12;;;;;;;3.08;1.50;;;;;;;28.21;57.33;101011.50;5024393;28;20586;-64
2022/07/13 10:16:46;;;;;;;2.22;1.50;;;;;;;28.40;57.47;101001.88;5028575;28;20033;-63
2022/07/13 10:19:12;;;;;;;3.15;1.30;;;;;;;28.61;55.95;101004.88;5029088;28;20029;-63
2022/07/13 10:21:52;;;;;;;2.63;1.60;;;;;;;28.91;55.83;101012.09;5026377;28;20557;-65
2022/07/13 10:24:21;;;;;;;2.92;1.80;;;;;;;29.21;54.70;101003.44;5009685;28;20164;-63
2022/07/13 10:26:48;;;;;;;4.43;1.65;;;;;;;29.50;52.81;101001.97;5025753;28;20025;-63
2022/07/13 10:31:59;;;;;;;4.10;2.00;;;;;;;30.02;50.74;101003.94;5016738;28;20686;-64
2022/07/13 10:35:04;;;;;;;7.32;1.73;;;;;;;30.25;50.61;101005.84;5025403;28;20041;-63
2022/07/13 10:38:09;;;;;;;3.05;1.90;;;;;;;30.71;47.64;101008.81;5024426;28;20053;-64
2022/07/13 10:40:37;;;;;;;2.80;1.60;;;;;;;30.88;47.92;101012.59;5025170;28;20186;-65
2022/07/13 10:43:05;;;;;;;2.50;1.42;;;;;;;30.95;48.24;101006.66;5011730;28;20041;-64
2022/07/13 10:45:53;;;;;;;1.95;1.38;;;;;;;31.03;46.21;101011.28;5004834;28;20076;-65
2022/07/13 10:48:22;;;;;;;1.40;1.02;;;;;;;31.20;47.29;101000.38;5024543;28;20129;-65
2022/07/13 10:50:54;;;;;;;1.10;0.98;;;;;;;31.32;46.77;101012.41;5006938;28;20087;-64
2022/07/13 10:53:21;;;;;;;1.83;1.25;;;;;;;31.50;46.43;101007.31;5015096;28;20092;-64
2022/07/13 10:55:51;;;;;;;1.75;1.30;;;;;;;31.63;46.28;101004.16;5019655;28;20492;-65
2022/07/13 10:58:31;;;;;;;1.60;1.30;;;;;;;31.67;46.36;100999.09;5024298;28;20038;-66
2022/07/13 11:01:07;;;;;;;1.55;1.05;;;;;;;31.64;46.14;100997.31;5019347;28;20508;-65
2022/07/13 11:03:43;;;;;;;1.73;1.10;;;;;;;31.65;45.83;100996.06;5021602;28;20033;-65
2022/07/13 11:06:13;;;;;;;1.45;1.20;;;;;;;31.67;45.81;100994.31;5016193;28;20032;-65
2022/07/13 11:08:39;;;;;;;1.83;1.20;;;;;;;31.59;46.35;100990.44;5008980;28;20051;-64
2022/07/13 11:11:18;;;;;;;2.05;1.33;;;;;;;31.55;47.77;100998.22;5004292;28;20025;-65
2022/07/13 11:13:45;;;;;;;1.85;1.20;;;;;;;31.57;47.78;100989.41;5026499;28;20127;-65
2022/07/13 11:16:13;;;;;;;2.53;1.40;;;;;;;31.68;47.29;100992.28;5022527;28;20069;-66
2022/07/13 11:18:41;;;;;;;1.30;1.20;;;;;;;31.72;47.16;100990.06;5019623;28;20061;-65
2022/07/13 11:21:19;;;;;;;2.25;1.33;;;;;;;32.00;46.90;100993.13;5022683;28;20037;-64
2022/07/13 11:26:44;;;;;;;3.40;1.48;;;;;;;32.23;46.33;100992.03;5025133;28;20027;-66
2022/07/13 11:29:40;;;;;;;4.25;1.70;;;;;;;32.29;46.17;100992.84;5026405;28;20399;-65
2022/07/13 11:32:06;;;;;;;1.90;1.30;;;;;;;32.50;46.15;100994.28;5003464;28;20084;-65
2022/07/13 11:34:32;;;;;;;1.42;1.20;;;;;;;32.68;45.90;100985.47;5026813;28;20026;-66
2022/07/13 11:37:01;;;;;;;3.53;1.65;;;;;;;32.73;45.92;100988.28;5027101;28;20064;-65
2022/07/13 11:39:32;;;;;;;2.05;1.27;;;;;;;32.95;44.83;100993.22;5014872;28;20033;-66
2022/07/13 11:42:00;;;;;;;4.40;1.48;;;;;;;33.02;45.94;101000.41;5011785;28;20040;-65
2022/07/13 11:44:34;;;;;;;1.50;1.40;;;;;;;33.14;45.13;100982.44;5020641;28;20029;-66
2022/07/13 11:47:09;;;;;;;2.28;1.50;;;;;;;33.25;43.76;100991.59;4996600;28;20057;-65
2022/07/13 11:49:47;;;;;;;2.45;1.42;;;;;;;33.29;44.45;100986.53;5019873;28;20037;-65
2022/07/13 11:52:28;;;;;;;1.80;1.20;;;;;;;33.32;44.12;100981.94;5012440;28;20041;-66
2022/07/13 11:55:01;;;;;;;1.98;1.30;;;;;;;33.30;44.04;100979.66;5009632;28;20128;-66
2022/07/13 11:57:27;;;;;;;1.65;1.30;;;;;;;33.31;44.16;100986.03;5002315;28;20084;-64
2022/07/13 12:00:01;;;;;;;3.47;1.38;;;;;;;33.21;45.28;100977.09;5015324;28;20080;-65
2022/07/13 12:02:37;;;;;;;1.80;1.20;;;;;;;32.97;45.14;100979.56;5022266;28;21144;-68
2022/07/13 12:05:03;;;;;;;4.22;1.63;;;;;;;33.01;44.68;100991.25;5021770;28;20484;-65
2022/07/13 12:07:32;;;;;;;1.60;1.38;;;;;;;32.90;45.95;100977.22;5026377;28;20037;-66
2022/07/13 12:10:06;;;;;;;2.22;1.25;;;;;;;32.92;45.85;100977.47;5011402;28;20035;-64